createdAt,value
2018-08-31T00:00:14.980Z,100160.00
2018-08-31T00:02:49.327Z,100162.00
2018-08-31T00:05:43.275Z,100160.00
2018-08-31T00:09:38.029Z,100164.00
2018-08-31T00:12:43.294Z,100170.00
2018-08-31T00:15:12.521Z,100166.00
2018-08-31T00:17:42.769Z,100169.00
2018-08-31T00:20:12.879Z,100169.00
2018-08-31T00:22:42.104Z,100179.00
2018-08-31T00:26:57.906Z,100176.00
2018-08-31T00:31:51.091Z,100170.00
2018-08-31T00:34:37.322Z,100174.00
2018-08-31T00:39:25.414Z,100179.00
2018-08-31T00:42:36.338Z,100180.00
2018-08-31T00:45:40.077Z,100176.00
2018-08-31T00:48:09.815Z,100175.00
2018-08-31T00:50:39.135Z,100178.00
2018-08-31T00:53:08.726Z,100182.00
2018-08-31T00:55:38.013Z,100188.00
2018-08-31T00:58:07.329Z,100186.00
2018-08-31T01:00:36.831Z,100186.00
2018-08-31T01:03:06.189Z,100178.00
2018-08-31T01:05:35.491Z,100181.00
2018-08-31T01:08:05.525Z,100178.00
2018-08-31T01:10:34.541Z,100181.00
2018-08-31T01:13:03.801Z,100179.00
2018-08-31T01:15:32.787Z,100179.00
2018-08-31T01:18:01.923Z,100178.00
2018-08-31T01:20:31.179Z,100183.00
2018-08-31T01:23:00.411Z,100181.00
2018-08-31T01:25:29.592Z,100180.00
2018-08-31T01:27:58.903Z,100169.00
2018-08-31T01:30:28.192Z,100170.00
2018-08-31T01:32:57.477Z,100180.00
2018-08-31T01:35:26.763Z,100178.00
2018-08-31T01:37:56.055Z,100179.00
2018-08-31T01:40:25.057Z,100181.00
2018-08-31T01:42:54.373Z,100177.00
2018-08-31T01:45:23.635Z,100170.00
2018-08-31T01:47:52.699Z,100174.00
2018-08-31T01:50:21.934Z,100172.00
2018-08-31T01:52:51.260Z,100165.00
2018-08-31T01:55:25.670Z,100166.00
2018-08-31T01:57:55.107Z,100160.00
2018-08-31T02:00:24.379Z,100162.00
2018-08-31T02:02:53.671Z,100156.00
2018-08-31T02:05:22.966Z,100160.00
2018-08-31T02:07:51.933Z,100163.00
2018-08-31T02:10:20.993Z,100156.00
2018-08-31T02:12:50.281Z,100160.00
2018-08-31T02:15:19.568Z,100160.00
2018-08-31T02:17:48.549Z,100157.00
2018-08-31T02:20:17.572Z,100160.00
2018-08-31T02:22:46.794Z,100156.00
2018-08-31T02:25:16.085Z,100151.00
2018-08-31T02:27:45.079Z,100165.00
2018-08-31T02:30:14.428Z,100169.00
2018-08-31T02:32:43.466Z,100170.00
2018-08-31T02:35:12.736Z,100173.00
2018-08-31T02:37:41.841Z,100166.00
2018-08-31T02:40:10.757Z,100166.00
2018-08-31T02:42:39.988Z,100167.00
2018-08-31T02:45:09.351Z,100164.00
2018-08-31T02:47:38.633Z,100174.00
2018-08-31T02:50:07.908Z,100174.00
2018-08-31T02:52:37.193Z,100167.00
2018-08-31T02:55:06.434Z,100164.00
2018-08-31T02:57:35.717Z,100167.00
2018-08-31T03:00:05.132Z,100172.00
2018-08-31T03:02:34.128Z,100166.00
2018-08-31T03:05:03.403Z,100168.00
2018-08-31T03:07:32.716Z,100165.00
2018-08-31T03:10:02.038Z,100165.00
2018-08-31T03:12:31.229Z,100165.00
2018-08-31T03:15:00.338Z,100169.00
2018-08-31T03:17:29.578Z,100165.00
2018-08-31T03:19:58.897Z,100168.00
2018-08-31T03:22:29.210Z,100174.00
2018-08-31T03:24:58.789Z,100166.00
2018-08-31T03:27:28.985Z,100172.00
2018-08-31T03:29:58.224Z,100169.00
2018-08-31T03:32:27.578Z,100174.00
2018-08-31T03:34:56.833Z,100174.00
2018-08-31T03:37:26.095Z,100166.00
2018-08-31T03:39:55.232Z,100170.00
2018-08-31T03:42:24.579Z,100169.00
2018-08-31T03:44:54.310Z,100162.00
2018-08-31T03:47:23.710Z,100157.00
2018-08-31T03:49:52.931Z,100158.00
2018-08-31T03:52:21.987Z,100163.00
2018-08-31T03:54:51.296Z,100157.00
2018-08-31T03:57:20.472Z,100170.00
2018-08-31T03:59:49.834Z,100163.00
2018-08-31T04:02:18.934Z,100166.00
2018-08-31T04:04:48.227Z,100171.00
2018-08-31T04:07:17.272Z,100172.00
2018-08-31T04:09:46.541Z,100163.00
2018-08-31T04:12:17.444Z,100161.00
2018-08-31T04:14:46.769Z,100166.00
2018-08-31T04:17:16.143Z,100168.00
2018-08-31T04:19:45.335Z,100173.00
2018-08-31T04:22:14.578Z,100175.00
2018-08-31T04:24:43.845Z,100181.00
2018-08-31T04:27:13.143Z,100171.00
2018-08-31T04:29:42.209Z,100177.00
2018-08-31T04:32:11.249Z,100169.00
2018-08-31T04:34:40.536Z,100178.00
2018-08-31T04:37:09.872Z,100182.00
2018-08-31T04:39:39.401Z,100179.00
2018-08-31T04:42:08.593Z,100185.00
2018-08-31T04:44:37.902Z,100182.00
2018-08-31T04:47:07.152Z,100194.00
2018-08-31T04:49:36.246Z,100188.00
2018-08-31T04:52:05.235Z,100190.00
2018-08-31T04:54:34.555Z,100193.00
2018-08-31T04:57:03.825Z,100190.00
2018-08-31T04:59:33.097Z,100203.00
2018-08-31T05:02:02.659Z,100203.00
2018-08-31T05:04:31.626Z,100193.00
2018-08-31T05:07:00.825Z,100197.00
2018-08-31T05:09:30.199Z,100196.00
2018-08-31T05:11:59.530Z,100193.00
2018-08-31T05:14:28.811Z,100196.00
2018-08-31T05:16:58.104Z,100203.00
2018-08-31T05:19:27.374Z,100205.00
2018-08-31T05:21:56.609Z,100208.00
2018-08-31T05:24:25.823Z,100212.00
2018-08-31T05:26:55.079Z,100214.00
2018-08-31T05:29:24.334Z,100216.00
2018-08-31T05:31:53.660Z,100215.00
2018-08-31T05:34:22.886Z,100219.00
2018-08-31T05:36:51.883Z,100212.00
2018-08-31T05:39:21.119Z,100209.00
2018-08-31T05:41:50.376Z,100211.00
2018-08-31T05:44:19.412Z,100214.00
2018-08-31T05:46:48.756Z,100219.00
2018-08-31T05:49:18.058Z,100220.00
2018-08-31T05:51:47.339Z,100218.00
2018-08-31T05:54:16.742Z,100221.00
2018-08-31T05:56:45.990Z,100226.00
2018-08-31T05:59:15.101Z,100225.00
2018-08-31T06:01:44.327Z,100229.00
2018-08-31T06:04:13.549Z,100238.00
2018-08-31T06:06:43.067Z,100241.00
2018-08-31T06:09:12.392Z,100252.00
2018-08-31T06:11:41.960Z,100251.00
2018-08-31T06:14:11.411Z,100252.00
2018-08-31T06:16:40.631Z,100254.00
2018-08-31T06:19:09.987Z,100257.00
2018-08-31T06:21:39.241Z,100255.00
2018-08-31T06:24:08.441Z,100261.00
2018-08-31T06:26:38.306Z,100273.00
2018-08-31T06:29:07.545Z,100268.00
2018-08-31T06:31:36.788Z,100275.00
2018-08-31T06:34:06.354Z,100277.00
2018-08-31T06:36:35.692Z,100282.00
2018-08-31T06:39:06.920Z,100287.00
2018-08-31T06:41:36.144Z,100291.00
2018-08-31T06:44:05.696Z,100293.00
2018-08-31T06:46:34.995Z,100288.00
2018-08-31T06:49:04.218Z,100289.00
2018-08-31T06:51:33.539Z,100294.00
2018-08-31T06:54:02.827Z,100284.00
2018-08-31T06:56:32.126Z,100289.00
2018-08-31T06:59:01.352Z,100288.00
2018-08-31T07:01:30.621Z,100298.00
2018-08-31T07:03:59.858Z,100284.00
2018-08-31T07:06:29.086Z,100286.00
2018-08-31T07:08:58.493Z,100284.00
2018-08-31T07:11:27.765Z,100281.00
2018-08-31T07:13:57.035Z,100279.00
2018-08-31T07:16:26.415Z,100281.00
2018-08-31T07:18:55.682Z,100283.00
2018-08-31T07:21:24.925Z,100274.00
2018-08-31T07:23:54.632Z,100289.00
2018-08-31T07:26:24.077Z,100293.00
2018-08-31T07:28:53.258Z,100292.00
2018-08-31T07:31:22.326Z,100287.00
2018-08-31T07:33:51.604Z,100298.00
2018-08-31T07:36:20.848Z,100295.00
2018-08-31T07:38:50.155Z,100303.00
2018-08-31T07:41:19.495Z,100299.00
2018-08-31T07:43:48.550Z,100301.00
2018-08-31T07:46:17.793Z,100301.00
2018-08-31T07:48:47.168Z,100306.00
2018-08-31T07:51:16.376Z,100309.00
2018-08-31T07:53:45.668Z,100310.00
2018-08-31T07:56:14.911Z,100311.00
2018-08-31T07:58:43.998Z,100312.00
2018-08-31T08:01:13.272Z,100304.00
2018-08-31T08:03:42.573Z,100310.00
2018-08-31T08:06:12.039Z,100314.00
2018-08-31T08:08:41.301Z,100312.00
2018-08-31T08:11:10.418Z,100319.00
2018-08-31T08:13:39.710Z,100316.00
2018-08-31T08:16:09.079Z,100310.00
2018-08-31T08:18:38.054Z,100310.00
2018-08-31T08:21:07.099Z,100308.00
2018-08-31T08:23:36.626Z,100309.00
2018-08-31T08:26:07.106Z,100315.00
2018-08-31T08:28:36.430Z,100318.00
2018-08-31T08:31:05.774Z,100317.00
2018-08-31T08:33:34.789Z,100314.00
2018-08-31T08:36:04.180Z,100309.00
2018-08-31T08:38:33.157Z,100302.00
2018-08-31T08:41:02.470Z,100308.00
2018-08-31T08:43:31.717Z,100316.00
2018-08-31T08:46:00.803Z,100312.00
2018-08-31T08:48:30.164Z,100311.00
2018-08-31T08:50:59.405Z,100321.00
2018-08-31T08:53:28.633Z,100336.00
2018-08-31T08:55:57.904Z,100335.00
2018-08-31T08:58:27.191Z,100324.00
2018-08-31T09:00:56.425Z,100310.00
2018-08-31T09:03:25.669Z,100314.00
2018-08-31T09:05:54.883Z,100319.00
2018-08-31T09:08:24.153Z,100324.00
2018-08-31T09:10:53.424Z,100339.00
2018-08-31T09:13:22.721Z,100321.00
2018-08-31T09:15:51.750Z,100331.00
2018-08-31T09:18:27.035Z,100321.00
2018-08-31T09:20:57.034Z,100313.00
2018-08-31T09:23:32.501Z,100318.00
2018-08-31T09:26:03.929Z,100335.00
2018-08-31T09:28:33.157Z,100324.00
2018-08-31T09:31:04.029Z,100324.00
2018-08-31T09:33:33.448Z,100335.00
2018-08-31T09:36:02.958Z,100332.00
2018-08-31T09:38:32.320Z,100323.00
2018-08-31T09:41:01.545Z,100320.00
2018-08-31T09:43:30.794Z,100323.00
2018-08-31T09:46:00.083Z,100322.00
2018-08-31T09:48:29.326Z,100314.00
2018-08-31T09:50:58.343Z,100318.00
2018-08-31T09:53:27.307Z,100308.00
2018-08-31T09:55:56.525Z,100302.00
2018-08-31T09:58:26.369Z,100300.00
2018-08-31T10:01:00.865Z,100291.00
2018-08-31T10:03:30.114Z,100288.00
2018-08-31T10:05:59.349Z,100292.00
2018-08-31T10:08:29.149Z,100294.00
2018-08-31T10:10:58.346Z,100304.00
2018-08-31T10:13:27.654Z,100303.00
2018-08-31T10:15:56.572Z,100302.00
2018-08-31T10:18:25.905Z,100294.00
2018-08-31T10:20:55.168Z,100297.00
2018-08-31T10:23:24.457Z,100300.00
2018-08-31T10:25:53.644Z,100301.00
2018-08-31T10:28:22.666Z,100306.00
2018-08-31T10:30:51.942Z,100303.00
2018-08-31T10:33:21.215Z,100289.00
2018-08-31T10:35:50.482Z,100288.00
2018-08-31T10:38:19.725Z,100295.00
2018-08-31T10:40:48.753Z,100298.00
2018-08-31T10:43:18.046Z,100296.00
2018-08-31T10:45:47.143Z,100300.00
2018-08-31T10:48:16.577Z,100293.00
2018-08-31T10:50:45.842Z,100287.00
2018-08-31T10:53:15.097Z,100285.00
2018-08-31T10:55:44.174Z,100282.00
2018-08-31T10:58:13.260Z,100278.00
2018-08-31T11:00:42.542Z,100287.00
2018-08-31T11:03:11.764Z,100285.00
2018-08-31T11:05:40.975Z,100285.00
2018-08-31T11:08:10.003Z,100286.00
2018-08-31T11:10:39.767Z,100286.00
2018-08-31T11:13:09.141Z,100282.00
2018-08-31T11:15:38.261Z,100274.00
2018-08-31T11:18:07.836Z,100279.00
2018-08-31T11:20:36.887Z,100273.00
2018-08-31T11:23:06.173Z,100275.00
2018-08-31T11:25:35.137Z,100279.00
2018-08-31T11:28:04.150Z,100270.00
2018-08-31T11:30:33.411Z,100266.00
2018-08-31T11:33:02.444Z,100270.00
2018-08-31T11:35:31.829Z,100275.00
2018-08-31T11:38:00.817Z,100273.00
2018-08-31T11:40:30.108Z,100271.00
2018-08-31T11:42:59.426Z,100264.00
2018-08-31T11:45:28.399Z,100275.00
2018-08-31T11:47:57.627Z,100269.00
2018-08-31T11:50:26.847Z,100266.00
2018-08-31T11:52:56.083Z,100256.00
2018-08-31T11:55:25.446Z,100259.00
2018-08-31T11:57:54.610Z,100249.00
2018-08-31T12:00:23.975Z,100262.00
2018-08-31T12:02:53.232Z,100260.00
2018-08-31T12:05:22.445Z,100253.00
2018-08-31T12:07:51.694Z,100252.00
2018-08-31T12:10:20.949Z,100255.00
2018-08-31T12:12:50.242Z,100255.00
2018-08-31T12:15:19.465Z,100258.00
2018-08-31T12:17:48.717Z,100254.00
2018-08-31T12:20:17.934Z,100256.00
2018-08-31T12:22:46.973Z,100262.00
2018-08-31T12:25:16.307Z,100258.00
2018-08-31T12:27:46.320Z,100263.00
2018-08-31T12:30:15.878Z,100264.00
2018-08-31T12:32:45.125Z,100250.00
2018-08-31T12:35:14.385Z,100262.00
2018-08-31T12:37:43.377Z,100253.00
2018-08-31T12:40:12.596Z,100260.00
2018-08-31T12:42:41.616Z,100266.00
2018-08-31T12:45:10.870Z,100269.00
2018-08-31T12:47:40.146Z,100257.00
2018-08-31T12:50:09.385Z,100262.00
2018-08-31T12:52:38.702Z,100252.00
2018-08-31T12:55:07.741Z,100259.00
2018-08-31T12:57:37.049Z,100254.00
2018-08-31T13:00:06.418Z,100242.00
2018-08-31T13:02:35.665Z,100246.00
2018-08-31T13:05:05.426Z,100254.00
2018-08-31T13:07:34.635Z,100253.00
2018-08-31T13:10:03.859Z,100257.00
2018-08-31T13:12:33.084Z,100258.00
2018-08-31T13:15:02.336Z,100246.00
2018-08-31T13:17:31.544Z,100238.00
2018-08-31T13:20:00.824Z,100240.00
2018-08-31T13:22:29.920Z,100243.00
2018-08-31T13:24:59.286Z,100234.00
2018-08-31T13:27:28.323Z,100235.00
2018-08-31T13:29:57.541Z,100235.00
2018-08-31T13:32:26.861Z,100240.00
2018-08-31T13:34:55.890Z,100237.00
2018-08-31T13:37:24.847Z,100234.00
2018-08-31T13:39:54.029Z,100230.00
2018-08-31T13:42:23.242Z,100236.00
2018-08-31T13:44:52.527Z,100233.00
2018-08-31T13:47:21.525Z,100237.00
2018-08-31T13:49:50.787Z,100239.00
2018-08-31T13:52:20.105Z,100244.00
2018-08-31T13:54:49.356Z,100243.00
2018-08-31T13:57:18.401Z,100253.00
2018-08-31T13:59:47.605Z,100241.00
2018-08-31T14:02:17.000Z,100237.00
2018-08-31T14:04:46.258Z,100234.00
2018-08-31T14:07:15.298Z,100236.00
2018-08-31T14:09:44.541Z,100237.00
2018-08-31T14:12:14.096Z,100231.00
2018-08-31T14:14:43.186Z,100237.00
2018-08-31T14:17:12.460Z,100233.00
2018-08-31T14:19:41.461Z,100230.00
2018-08-31T14:22:10.736Z,100237.00
2018-08-31T14:24:39.731Z,100244.00
2018-08-31T14:27:08.870Z,100236.00
2018-08-31T14:29:38.192Z,100241.00
2018-08-31T14:32:07.471Z,100230.00
2018-08-31T14:34:36.686Z,100244.00
2018-08-31T14:37:06.171Z,100238.00
2018-08-31T14:39:35.242Z,100242.00
2018-08-31T14:42:04.482Z,100255.00
2018-08-31T14:44:33.473Z,100248.00
2018-08-31T14:47:02.738Z,100245.00
2018-08-31T14:49:32.001Z,100251.00
2018-08-31T14:52:01.231Z,100245.00
2018-08-31T14:54:30.565Z,100250.00
2018-08-31T14:56:59.865Z,100250.00
2018-08-31T14:59:29.052Z,100252.00
2018-08-31T15:01:58.052Z,100256.00
2018-08-31T15:04:27.078Z,100260.00
2018-08-31T15:06:56.464Z,100259.00
2018-08-31T15:09:25.783Z,100257.00
2018-08-31T15:11:54.998Z,100255.00
2018-08-31T15:14:24.320Z,100254.00
2018-08-31T15:16:53.551Z,100257.00
2018-08-31T15:19:22.574Z,100256.00
2018-08-31T15:21:51.803Z,100262.00
2018-08-31T15:24:21.158Z,100259.00
2018-08-31T15:26:50.440Z,100249.00
2018-08-31T15:29:19.688Z,100240.00
2018-08-31T15:31:48.957Z,100245.00
2018-08-31T15:34:18.197Z,100240.00
2018-08-31T15:36:47.487Z,100238.00
2018-08-31T15:39:16.717Z,100241.00
2018-08-31T15:41:45.959Z,100242.00
2018-08-31T15:44:15.238Z,100231.00
2018-08-31T15:46:44.406Z,100229.00
2018-08-31T15:49:13.405Z,100230.00
2018-08-31T15:51:42.655Z,100226.00
2018-08-31T15:54:11.948Z,100229.00
2018-08-31T15:56:41.280Z,100233.00
2018-08-31T15:59:10.645Z,100236.00
2018-08-31T16:01:39.677Z,100235.00
2018-08-31T16:04:09.129Z,100238.00
2018-08-31T16:06:38.452Z,100236.00
2018-08-31T16:09:08.975Z,100241.00
2018-08-31T16:11:38.182Z,100235.00
2018-08-31T16:14:07.626Z,100239.00
2018-08-31T16:16:36.944Z,100234.00
2018-08-31T16:19:06.260Z,100233.00
2018-08-31T16:21:35.514Z,100232.00
2018-08-31T16:24:04.822Z,100227.00
2018-08-31T16:26:34.112Z,100226.00
2018-08-31T16:29:03.436Z,100230.00
2018-08-31T16:31:32.682Z,100227.00
2018-08-31T16:34:02.241Z,100231.00
2018-08-31T16:36:31.291Z,100233.00
2018-08-31T16:39:00.295Z,100239.00
2018-08-31T16:41:29.525Z,100226.00
2018-08-31T16:43:59.602Z,100232.00
2018-08-31T16:46:28.890Z,100221.00
2018-08-31T16:48:58.180Z,100232.00
2018-08-31T16:51:27.459Z,100233.00
2018-08-31T16:53:56.448Z,100239.00
2018-08-31T16:56:25.726Z,100235.00
2018-08-31T16:58:55.066Z,100238.00
2018-08-31T17:01:24.341Z,100237.00
2018-08-31T17:03:53.578Z,100236.00
2018-08-31T17:06:22.986Z,100224.00
2018-08-31T17:08:52.021Z,100226.00
2018-08-31T17:11:21.217Z,100232.00
2018-08-31T17:13:50.286Z,100229.00
2018-08-31T17:16:19.533Z,100230.00
2018-08-31T17:18:48.580Z,100237.00
2018-08-31T17:21:17.840Z,100237.00
2018-08-31T17:23:47.054Z,100244.00
2018-08-31T17:26:21.679Z,100245.00
2018-08-31T17:28:56.265Z,100254.00
2018-08-31T17:31:30.753Z,100253.00
2018-08-31T17:34:05.241Z,100251.00
2018-08-31T17:36:39.602Z,100258.00
2018-08-31T17:39:09.357Z,100258.00
2018-08-31T17:41:38.401Z,100248.00
2018-08-31T17:44:08.501Z,100257.00
2018-08-31T17:46:37.702Z,100257.00
2018-08-31T17:49:06.696Z,100264.00
2018-08-31T17:51:36.011Z,100263.00
2018-08-31T17:54:05.286Z,100261.00
2018-08-31T17:56:34.476Z,100265.00
2018-08-31T17:59:03.724Z,100278.00
2018-08-31T18:01:32.981Z,100270.00
2018-08-31T18:04:02.276Z,100272.00
2018-08-31T18:06:31.458Z,100279.00
2018-08-31T18:09:00.672Z,100277.00
2018-08-31T18:11:29.892Z,100280.00
2018-08-31T18:13:59.151Z,100280.00
2018-08-31T18:16:28.595Z,100285.00
2018-08-31T18:18:57.692Z,100285.00
2018-08-31T18:21:26.710Z,100283.00
2018-08-31T18:23:55.915Z,100286.00
2018-08-31T18:26:25.132Z,100290.00
2018-08-31T18:28:54.329Z,100298.00
2018-08-31T18:31:23.598Z,100295.00
2018-08-31T18:33:52.633Z,100299.00
2018-08-31T18:36:21.926Z,100300.00
2018-08-31T18:38:51.143Z,100294.00
2018-08-31T18:41:20.386Z,100293.00
2018-08-31T18:43:49.398Z,100295.00
2018-08-31T18:46:18.425Z,100309.00
2018-08-31T18:48:47.650Z,100305.00
2018-08-31T18:51:16.937Z,100309.00
2018-08-31T18:53:46.363Z,100311.00
2018-08-31T18:56:15.717Z,100313.00
2018-08-31T18:58:44.786Z,100304.00
2018-08-31T19:01:14.117Z,100313.00
2018-08-31T19:03:43.356Z,100311.00
2018-08-31T19:06:12.780Z,100319.00
2018-08-31T19:08:42.069Z,100333.00
2018-08-31T19:11:11.296Z,100324.00
2018-08-31T19:13:40.316Z,100335.00
2018-08-31T19:16:09.568Z,100339.00
2018-08-31T19:18:38.889Z,100335.00
2018-08-31T19:21:08.035Z,100336.00
2018-08-31T19:23:37.355Z,100338.00
2018-08-31T19:26:06.610Z,100337.00
2018-08-31T19:28:36.042Z,100342.00
2018-08-31T19:31:05.060Z,100338.00
2018-08-31T19:33:34.280Z,100340.00
2018-08-31T19:36:03.544Z,100333.00
2018-08-31T19:38:32.894Z,100330.00
2018-08-31T19:41:02.182Z,100331.00
2018-08-31T19:43:31.449Z,100335.00
2018-08-31T19:46:00.508Z,100335.00
2018-08-31T19:48:29.807Z,100336.00
2018-08-31T19:50:58.793Z,100337.00
2018-08-31T19:53:27.961Z,100343.00
2018-08-31T19:55:57.188Z,100340.00
2018-08-31T19:58:26.442Z,100351.00
2018-08-31T20:00:55.682Z,100353.00
2018-08-31T20:03:25.079Z,100341.00
2018-08-31T20:05:54.098Z,100349.00
2018-08-31T20:08:23.517Z,100350.00
2018-08-31T20:10:52.696Z,100347.00
2018-08-31T20:13:22.013Z,100352.00
2018-08-31T20:15:51.246Z,100348.00
2018-08-31T20:18:20.437Z,100346.00
2018-08-31T20:20:49.643Z,100345.00
2018-08-31T20:23:18.939Z,100352.00
2018-08-31T20:25:48.211Z,100355.00
2018-08-31T20:28:17.219Z,100355.00
2018-08-31T20:30:46.216Z,100357.00
2018-08-31T20:33:15.494Z,100352.00
2018-08-31T20:35:44.763Z,100361.00
2018-08-31T20:38:13.976Z,100363.00
2018-08-31T20:40:43.285Z,100364.00
2018-08-31T20:43:12.904Z,100363.00
2018-08-31T20:45:41.869Z,100372.00
2018-08-31T20:48:11.314Z,100376.00
2018-08-31T20:50:40.506Z,100378.00
2018-08-31T20:53:09.819Z,100377.00
2018-08-31T20:55:39.037Z,100375.00
2018-08-31T20:58:07.979Z,100374.00
2018-08-31T21:00:37.253Z,100367.00
2018-08-31T21:03:06.582Z,100379.00
2018-08-31T21:05:35.605Z,100377.00
2018-08-31T21:08:04.895Z,100388.00
2018-08-31T21:10:34.126Z,100381.00
2018-08-31T21:13:03.406Z,100381.00
2018-08-31T21:15:32.693Z,100387.00
2018-08-31T21:18:01.958Z,100390.00
2018-08-31T21:20:30.989Z,100398.00
2018-08-31T21:22:59.941Z,100388.00
2018-08-31T21:25:29.150Z,100390.00
2018-08-31T21:27:58.708Z,100394.00
2018-08-31T21:30:27.949Z,100390.00
2018-08-31T21:32:57.190Z,100398.00
2018-08-31T21:35:26.675Z,100394.00
2018-08-31T21:37:55.884Z,100406.00
2018-08-31T21:40:31.587Z,100403.00
2018-08-31T21:43:00.599Z,100401.00
2018-08-31T21:45:29.784Z,100404.00
2018-08-31T21:47:59.049Z,100400.00
2018-08-31T21:50:28.320Z,100403.00
2018-08-31T21:52:57.305Z,100395.00
2018-08-31T21:55:26.688Z,100390.00
2018-08-31T21:57:55.657Z,100382.00
2018-08-31T22:00:24.914Z,100390.00
2018-08-31T22:02:54.116Z,100382.00
2018-08-31T22:05:23.405Z,100380.00
2018-08-31T22:07:52.605Z,100375.00
2018-08-31T22:10:21.837Z,100388.00
2018-08-31T22:12:51.106Z,100376.00
2018-08-31T22:15:25.573Z,100384.00
2018-08-31T22:17:55.243Z,100389.00
2018-08-31T22:20:24.861Z,100393.00
2018-08-31T22:22:55.033Z,100390.00
2018-08-31T22:25:25.009Z,100402.00
2018-08-31T22:27:54.223Z,100400.00
2018-08-31T22:30:23.261Z,100401.00
2018-08-31T22:32:52.489Z,100409.00
2018-08-31T22:35:21.724Z,100406.00
2018-08-31T22:37:50.986Z,100401.00
2018-08-31T22:40:20.222Z,100394.00
2018-08-31T22:42:49.593Z,100391.00
2018-08-31T22:45:18.838Z,100393.00
2018-08-31T22:47:48.127Z,100393.00
2018-08-31T22:50:17.361Z,100387.00
2018-08-31T22:52:46.656Z,100379.00
2018-08-31T22:55:15.882Z,100387.00
2018-08-31T22:57:45.134Z,100378.00
2018-08-31T23:00:14.435Z,100368.00
2018-08-31T23:02:43.621Z,100367.00
2018-08-31T23:05:12.984Z,100364.00
2018-08-31T23:07:47.504Z,100358.00
2018-08-31T23:10:16.688Z,100359.00
2018-08-31T23:12:45.929Z,100359.00
2018-08-31T23:15:15.173Z,100351.00
2018-08-31T23:17:44.198Z,100354.00
2018-08-31T23:20:13.176Z,100361.00
2018-08-31T23:22:42.433Z,100355.00
2018-08-31T23:25:17.051Z,100358.00
2018-08-31T23:27:46.252Z,100367.00
2018-08-31T23:30:15.611Z,100374.00
2018-08-31T23:32:44.880Z,100368.00
2018-08-31T23:35:14.171Z,100379.00
2018-08-31T23:37:43.439Z,100368.00
2018-08-31T23:40:12.719Z,100380.00
2018-08-31T23:42:41.739Z,100382.00
2018-08-31T23:45:10.736Z,100381.00
2018-08-31T23:47:39.967Z,100381.00
2018-08-31T23:50:09.286Z,100387.00
2018-08-31T23:52:38.513Z,100382.00
2018-08-31T23:55:07.834Z,100385.00
2018-08-31T23:57:37.026Z,100382.00
